MTS Valour — MPVV8 — position and weather

sailwx.info

Track history (hours):
 
Tides and Currents Weather Stations Pressure Air Temp Water Temp Dewpoint Dewpoint Depression Visibility Wind Speed Wind Dir Waves Ship Positions

MTS Valour

Last reported at 2016-Dec-10 21:31 UTC. Time now 2016-Dec-10 22:27 UTC.
Position N 51°54' E 004°26'.

Length 24 m; draft 2.4 m.

Type: Tug. MMSI: 235040596.

Date/timePositionNaut miles runAvg speedWind from/ knotsBaromVisibWave heightAir tempDewpointWater temp
2016-Dec-10 21:31N 51°54' E 004°26'0 0.0
2016-Dec-10 20:32N 51°54' E 004°26'0 0.0
2016-Dec-10 19:32N 51°54' E 004°26'0 0.0
2016-Dec-10 18:32N 51°54' E 004°26'0 0.0
2016-Dec-10 17:32N 51°54' E 004°26'0 0.0
2016-Dec-10 16:32N 51°54' E 004°26'0 0.0
2016-Dec-10 15:32N 51°54' E 004°26'0 0.0
2016-Dec-10 14:31N 51°54' E 004°26'5 5.2
2016-Dec-10 13:33N 51°54' E 004°18'7 7.2
2016-Dec-10 12:33N 51°58' E 004°08'8 7.8
2016-Dec-10 11:33N 51°59' E 003°56'8 7.7
2016-Dec-10 10:33N 51°51' E 003°57'3 3.1
2016-Dec-10 09:25N 51°49' E 004°02'0 0.0
2016-Dec-10 08:28N 51°49' E 004°02'0 0.0
2016-Dec-10 06:22N 51°49' E 004°02'0 0.0
2016-Dec-10 05:31N 51°49' E 004°02'0 0.0
2016-Dec-10 04:31N 51°49' E 004°02'0 0.0
2016-Dec-10 03:25N 51°49' E 004°02'0 0.0
2016-Dec-10 02:31N 51°49' E 004°02'0 0.0
2016-Dec-10 01:25N 51°49' E 004°02'0 0.0
2016-Dec-10 00:19N 51°49' E 004°02'0 0.0
2016-Dec-09 23:28N 51°49' E 004°02'0 0.0
2016-Dec-09 19:07N 51°49' E 004°02'0 0.0
2016-Dec-09 18:28N 51°49' E 004°02'0 0.0
2016-Dec-09 17:28N 51°49' E 004°02'0 0.0
2016-Dec-09 16:28N 51°49' E 004°02'0 0.2
2016-Dec-09 15:33N 51°50' E 004°02'0 0.0
2016-Dec-09 14:33N 51°50' E 004°02'0 0.2
2016-Dec-09 13:33N 51°49' E 004°02'0 0.1
2016-Dec-09 12:29N 51°49' E 004°02'0 0.0
2016-Dec-09 11:29N 51°49' E 004°02'0 0.0
2016-Dec-09 10:29N 51°49' E 004°02'0 0.0
2016-Dec-09 09:29N 51°49' E 004°02'0 0.0
2016-Dec-09 08:32N 51°49' E 004°02'0 0.0
2016-Dec-09 07:32N 51°49' E 004°02'0 0.0
2016-Dec-09 06:32N 51°49' E 004°02'0 0.0
2016-Dec-09 05:32N 51°49' E 004°02'0 0.0
2016-Dec-09 04:32N 51°49' E 004°02'0 0.0
2016-Dec-09 03:32N 51°49' E 004°02'0 0.0
2016-Dec-09 02:29N 51°49' E 004°02'0 0.0
2016-Dec-09 01:32N 51°49' E 004°02'0 0.0
2016-Dec-09 00:26N 51°49' E 004°02'0 0.0
2016-Dec-08 23:32N 51°49' E 004°02'0 0.0
2016-Dec-08 22:29N 51°49' E 004°02'0 0.0
2016-Dec-08 21:32N 51°49' E 004°02'0 0.0
2016-Dec-08 20:32N 51°49' E 004°02'0 0.0
2016-Dec-08 19:32N 51°49' E 004°02'0 0.0
2016-Dec-08 18:29N 51°49' E 004°02'0 0.0
2016-Dec-08 17:32N 51°49' E 004°02'0 0.0
2016-Dec-08 16:29N 51°49' E 004°02'0 0.0
2016-Dec-08 15:26N 51°49' E 004°02'0 0.0
2016-Dec-08 14:29N 51°49' E 004°02'0 0.0
2016-Dec-08 13:32N 51°49' E 004°02'0 0.0
2016-Dec-08 12:26N 51°49' E 004°02'0 0.0
2016-Dec-08 11:29N 51°49' E 004°02'0 0.0
2016-Dec-08 10:32N 51°49' E 004°02'0 0.3
2016-Dec-08 09:33N 51°49' E 004°03'0 0.0
2016-Dec-08 07:33N 51°49' E 004°03'0 0.0
2016-Dec-08 06:22N 51°49' E 004°03'0 0.0
2016-Dec-08 05:33N 51°49' E 004°03'0 0.0
2016-Dec-08 04:28N 51°49' E 004°03'0 0.0
2016-Dec-08 03:21N 51°49' E 004°03'0 0.0
2016-Dec-08 02:33N 51°49' E 004°03'0 0.0
2016-Dec-08 01:28N 51°49' E 004°03'0 0.0
2016-Dec-08 00:33N 51°49' E 004°03'0 0.0
2016-Dec-07 23:33N 51°49' E 004°03'0 0.0
2016-Dec-07 21:13N 51°49' E 004°03'0 0.0
2016-Dec-07 20:33N 51°49' E 004°03'0 0.0
2016-Dec-07 19:24N 51°49' E 004°03'0 0.0
2016-Dec-07 18:28N 51°49' E 004°03'0 0.0
2016-Dec-07 17:33N 51°49' E 004°03'0 0.0
2016-Dec-07 16:33N 51°49' E 004°03'0 0.0
2016-Dec-07 15:33N 51°49' E 004°03'0 0.0
2016-Dec-07 14:31N 51°49' E 004°03'0 0.0
2016-Dec-07 13:33N 51°49' E 004°03'0 0.0
2016-Dec-07 12:33N 51°49' E 004°03'0 0.0
2016-Dec-07 11:28N 51°49' E 004°03'0 0.0
2016-Dec-07 10:33N 51°49' E 004°03'0 0.0
2016-Dec-07 09:33N 51°49' E 004°03'0 0.0
2016-Dec-07 08:33N 51°49' E 004°03'0 0.0
2016-Dec-07 07:33N 51°49' E 004°03'0 0.2
2016-Dec-07 06:31N 51°49' E 004°02'0 0.0
2016-Dec-06 20:22N 51°49' E 004°02'0 0.0
2016-Dec-06 18:28N 51°49' E 004°02'0 0.0
2016-Dec-06 17:28N 51°49' E 004°02'0 0.0
2016-Dec-06 16:25N 51°49' E 004°02'0 0.0
2016-Dec-06 13:25N 51°49' E 004°02'0 0.0
2016-Dec-06 12:31N 51°49' E 004°02'0 0.0
2016-Dec-06 11:31N 51°49' E 004°02'0 0.0
2016-Dec-06 10:28N 51°49' E 004°02'0 0.0
2016-Dec-06 09:13N 51°49' E 004°02'0 0.2
2016-Dec-06 08:33N 51°49' E 004°02'3 3.5
2016-Dec-06 07:34N 51°51' E 003°57'10 9.7
2016-Dec-06 06:31N 51°51' E 003°41'29 9.9
2016-Dec-06 03:33N 51°47' E 002°54'25 7.7
2016-Dec-06 00:21N 51°34' E 002°20'5 6.6
2016-Dec-05 23:33N 51°30' E 002°15'7 7.0
2016-Dec-05 22:34N 51°25' E 002°07'6 5.7
2016-Dec-05 21:34N 51°23' E 001°58'9 8.7
2016-Dec-05 20:33N 51°28' E 001°46'9 8.5
2016-Dec-05 19:33N 51°29' E 001°33'1110.0
2016-Dec-05 18:30N 51°29' E 001°16'1011.0
2016-Dec-05 17:33N 51°29' E 000°59'1010.2
2016-Dec-05 16:34N 51°29' E 000°43'8 8.2
2016-Dec-05 15:33N 51°30' E 000°30'6 6.5
2016-Dec-05 14:34N 51°27' E 000°20'1 0.8
2016-Dec-05 13:34N 51°28' E 000°21'0 0.0
2016-Dec-05 12:34N 51°28' E 000°21'1 0.5
2016-Dec-05 11:34N 51°27' E 000°20'5 4.5
2016-Dec-05 10:33N 51°29' E 000°27'6 5.5
2016-Dec-05 09:33N 51°30' E 000°36'6 5.7
2016-Dec-05 08:33N 51°30' E 000°45'5 5.4
2016-Dec-05 07:33N 51°30' E 000°54'5 4.6
2016-Dec-05 06:33N 51°30' E 001°01'5 4.9
2016-Dec-05 05:33N 51°29' E 001°09'5 4.7
2016-Dec-05 04:33N 51°29' E 001°16'5 5.1
2016-Dec-05 03:32N 51°29' E 001°25'5 5.1
2016-Dec-05 02:33N 51°29' E 001°33'5 5.3
2016-Dec-05 01:33N 51°28' E 001°41'0 0.2
2016-Dec-05 00:33N 51°28' E 001°41'1 1.2
2016-Dec-04 23:33N 51°27' E 001°43'1 0.9
2016-Dec-04 22:34N 51°27' E 001°44'1 0.9
2016-Dec-04 21:33N 51°26' E 001°45'1 1.3
2016-Dec-04 20:33N 51°25' E 001°44'2 2.0
2016-Dec-04 19:33N 51°23' E 001°43'3 2.9
2016-Dec-04 18:33N 51°20' E 001°42'5 5.3
2016-Dec-04 17:34N 51°15' E 001°40'6 5.6
2016-Dec-04 16:33N 51°09' E 001°41'7 6.7
2016-Dec-04 15:33N 51°03' E 001°36'8 7.6
2016-Dec-04 14:33N 50°57' E 001°31'71 1.8
2016-Dec-03 00:20N 50°21' W 000°06'6 7.2
2016-Dec-02 23:33N 50°26' W 000°10'18 8.9
2016-Dec-02 21:33N 50°35' W 000°35'10 9.9
2016-Dec-02 20:33N 50°39' W 000°48'9 9.5
2016-Dec-02 19:34N 50°43' W 001°02'6 5.5
2016-Dec-02 18:33N 50°45' W 001°11'0 0.0
2016-Dec-02 17:33N 50°45' W 001°11'0 0.0
2016-Dec-02 16:33N 50°45' W 001°11'0 0.0
2016-Dec-02 15:33N 50°45' W 001°11'0 0.0
2016-Dec-02 14:33N 50°45' W 001°11'0 0.0
2016-Dec-02 13:33N 50°45' W 001°11'0 0.0
2016-Dec-02 12:33N 50°45' W 001°11'0 0.0
2016-Dec-02 11:33N 50°45' W 001°11'0 0.0
2016-Dec-02 10:33N 50°45' W 001°11'0 0.0
2016-Dec-02 09:33N 50°45' W 001°10'0 0.0
2016-Dec-02 08:33N 50°45' W 001°11'0 0.0
2016-Dec-02 07:33N 50°45' W 001°11'0 0.0
2016-Dec-02 06:33N 50°45' W 001°11'0 0.0
2016-Dec-02 05:33N 50°45' W 001°11'0 0.0
2016-Dec-02 04:33N 50°45' W 001°11'0 0.0
2016-Dec-02 03:33N 50°45' W 001°11'0 0.0
2016-Dec-02 02:33N 50°45' W 001°11'0 0.0
2016-Dec-02 01:33N 50°45' W 001°11'0 0.0
2016-Dec-02 00:33N 50°45' W 001°11'0 0.0
2016-Dec-01 23:33N 50°45' W 001°11'0 0.0
2016-Dec-01 22:33N 50°45' W 001°11'0 0.0
2016-Dec-01 21:33N 50°45' W 001°11'0 0.0
2016-Dec-01 20:33N 50°45' W 001°10'0 0.0
2016-Dec-01 19:33N 50°45' W 001°11'0 0.0
2016-Dec-01 18:33N 50°45' W 001°11'0 0.0
2016-Dec-01 17:33N 50°45' W 001°11'0 0.0
2016-Dec-01 16:33N 50°45' W 001°11'0 0.0
2016-Dec-01 15:33N 50°45' W 001°11'0 0.0
2016-Dec-01 14:33N 50°45' W 001°11'0 0.0
2016-Dec-01 13:33N 50°45' W 001°11'0 0.0
2016-Dec-01 12:33N 50°45' W 001°11'0 0.0
2016-Dec-01 11:33N 50°45' W 001°11'0 0.0
2016-Dec-01 10:33N 50°45' W 001°11'0 0.0
2016-Dec-01 09:33N 50°45' W 001°11'0 0.0
2016-Dec-01 08:33N 50°45' W 001°10'0 0.0
2016-Dec-01 07:33N 50°45' W 001°11'0 0.0
2016-Dec-01 06:33N 50°45' W 001°11'0 0.0
2016-Dec-01 05:33N 50°45' W 001°11'0 0.0
2016-Dec-01 04:33N 50°45' W 001°11'0 0.0
2016-Dec-01 03:33N 50°45' W 001°11'0 0.0
2016-Dec-01 02:33N 50°45' W 001°11'0 0.0
2016-Dec-01 01:33N 50°45' W 001°11'0 0.0
2016-Dec-01 00:33N 50°45' W 001°11'0 0.0
2016-Nov-30 23:33N 50°45' W 001°11'0 0.0
2016-Nov-30 22:33N 50°45' W 001°11'0 0.0
2016-Nov-30 21:33N 50°45' W 001°11'  
Track history (hours):
 
Tides and Currents Weather Stations Pressure Air Temp Water Temp Dewpoint Dewpoint Depression Visibility Wind Speed Wind Dir Waves Ship Positions

MTS Valour

Last reported at 2016-Dec-10 21:31 UTC. Time now 2016-Dec-10 22:27 UTC.
Position N 51°54' E 004°26'.

Length 24 m; draft 2.4 m.

Type: Tug. MMSI: 235040596.

Date/timePositionNaut miles runAvg speedWind from/ knotsBaromVisibWave heightAir tempDewpointWater temp
2016-Dec-10 21:31N 51°54' E 004°26'0 0.0
2016-Dec-10 20:32N 51°54' E 004°26'0 0.0
2016-Dec-10 19:32N 51°54' E 004°26'0 0.0
2016-Dec-10 18:32N 51°54' E 004°26'0 0.0
2016-Dec-10 17:32N 51°54' E 004°26'0 0.0
2016-Dec-10 16:32N 51°54' E 004°26'0 0.0
2016-Dec-10 15:32N 51°54' E 004°26'0 0.0
2016-Dec-10 14:31N 51°54' E 004°26'5 5.2
2016-Dec-10 13:33N 51°54' E 004°18'7 7.2
2016-Dec-10 12:33N 51°58' E 004°08'8 7.8
2016-Dec-10 11:33N 51°59' E 003°56'8 7.7
2016-Dec-10 10:33N 51°51' E 003°57'3 3.1
2016-Dec-10 09:25N 51°49' E 004°02'0 0.0
2016-Dec-10 08:28N 51°49' E 004°02'0 0.0
2016-Dec-10 06:22N 51°49' E 004°02'0 0.0
2016-Dec-10 05:31N 51°49' E 004°02'0 0.0
2016-Dec-10 04:31N 51°49' E 004°02'0 0.0
2016-Dec-10 03:25N 51°49' E 004°02'0 0.0
2016-Dec-10 02:31N 51°49' E 004°02'0 0.0
2016-Dec-10 01:25N 51°49' E 004°02'0 0.0
2016-Dec-10 00:19N 51°49' E 004°02'0 0.0
2016-Dec-09 23:28N 51°49' E 004°02'0 0.0
2016-Dec-09 19:07N 51°49' E 004°02'0 0.0
2016-Dec-09 18:28N 51°49' E 004°02'0 0.0
2016-Dec-09 17:28N 51°49' E 004°02'0 0.0
2016-Dec-09 16:28N 51°49' E 004°02'0 0.2
2016-Dec-09 15:33N 51°50' E 004°02'0 0.0
2016-Dec-09 14:33N 51°50' E 004°02'0 0.2
2016-Dec-09 13:33N 51°49' E 004°02'0 0.1
2016-Dec-09 12:29N 51°49' E 004°02'0 0.0
2016-Dec-09 11:29N 51°49' E 004°02'0 0.0
2016-Dec-09 10:29N 51°49' E 004°02'0 0.0
2016-Dec-09 09:29N 51°49' E 004°02'0 0.0
2016-Dec-09 08:32N 51°49' E 004°02'0 0.0
2016-Dec-09 07:32N 51°49' E 004°02'0 0.0
2016-Dec-09 06:32N 51°49' E 004°02'0 0.0
2016-Dec-09 05:32N 51°49' E 004°02'0 0.0
2016-Dec-09 04:32N 51°49' E 004°02'0 0.0
2016-Dec-09 03:32N 51°49' E 004°02'0 0.0
2016-Dec-09 02:29N 51°49' E 004°02'0 0.0
2016-Dec-09 01:32N 51°49' E 004°02'0 0.0
2016-Dec-09 00:26N 51°49' E 004°02'0 0.0
2016-Dec-08 23:32N 51°49' E 004°02'0 0.0
2016-Dec-08 22:29N 51°49' E 004°02'0 0.0
2016-Dec-08 21:32N 51°49' E 004°02'0 0.0
2016-Dec-08 20:32N 51°49' E 004°02'0 0.0
2016-Dec-08 19:32N 51°49' E 004°02'0 0.0
2016-Dec-08 18:29N 51°49' E 004°02'0 0.0
2016-Dec-08 17:32N 51°49' E 004°02'0 0.0
2016-Dec-08 16:29N 51°49' E 004°02'0 0.0
2016-Dec-08 15:26N 51°49' E 004°02'0 0.0
2016-Dec-08 14:29N 51°49' E 004°02'0 0.0
2016-Dec-08 13:32N 51°49' E 004°02'0 0.0
2016-Dec-08 12:26N 51°49' E 004°02'0 0.0
2016-Dec-08 11:29N 51°49' E 004°02'0 0.0
2016-Dec-08 10:32N 51°49' E 004°02'0 0.3
2016-Dec-08 09:33N 51°49' E 004°03'0 0.0
2016-Dec-08 07:33N 51°49' E 004°03'0 0.0
2016-Dec-08 06:22N 51°49' E 004°03'0 0.0
2016-Dec-08 05:33N 51°49' E 004°03'0 0.0
2016-Dec-08 04:28N 51°49' E 004°03'0 0.0
2016-Dec-08 03:21N 51°49' E 004°03'0 0.0
2016-Dec-08 02:33N 51°49' E 004°03'0 0.0
2016-Dec-08 01:28N 51°49' E 004°03'0 0.0
2016-Dec-08 00:33N 51°49' E 004°03'0 0.0
2016-Dec-07 23:33N 51°49' E 004°03'0 0.0
2016-Dec-07 21:13N 51°49' E 004°03'0 0.0
2016-Dec-07 20:33N 51°49' E 004°03'0 0.0
2016-Dec-07 19:24N 51°49' E 004°03'0 0.0
2016-Dec-07 18:28N 51°49' E 004°03'0 0.0
2016-Dec-07 17:33N 51°49' E 004°03'0 0.0
2016-Dec-07 16:33N 51°49' E 004°03'0 0.0
2016-Dec-07 15:33N 51°49' E 004°03'0 0.0
2016-Dec-07 14:31N 51°49' E 004°03'0 0.0
2016-Dec-07 13:33N 51°49' E 004°03'0 0.0
2016-Dec-07 12:33N 51°49' E 004°03'0 0.0
2016-Dec-07 11:28N 51°49' E 004°03'0 0.0
2016-Dec-07 10:33N 51°49' E 004°03'0 0.0
2016-Dec-07 09:33N 51°49' E 004°03'0 0.0
2016-Dec-07 08:33N 51°49' E 004°03'0 0.0
2016-Dec-07 07:33N 51°49' E 004°03'0 0.2
2016-Dec-07 06:31N 51°49' E 004°02'0 0.0
2016-Dec-06 20:22N 51°49' E 004°02'0 0.0
2016-Dec-06 18:28N 51°49' E 004°02'0 0.0
2016-Dec-06 17:28N 51°49' E 004°02'0 0.0
2016-Dec-06 16:25N 51°49' E 004°02'0 0.0
2016-Dec-06 13:25N 51°49' E 004°02'0 0.0
2016-Dec-06 12:31N 51°49' E 004°02'0 0.0
2016-Dec-06 11:31N 51°49' E 004°02'0 0.0
2016-Dec-06 10:28N 51°49' E 004°02'0 0.0
2016-Dec-06 09:13N 51°49' E 004°02'0 0.2
2016-Dec-06 08:33N 51°49' E 004°02'3 3.5
2016-Dec-06 07:34N 51°51' E 003°57'10 9.7
2016-Dec-06 06:31N 51°51' E 003°41'29 9.9
2016-Dec-06 03:33N 51°47' E 002°54'25 7.7
2016-Dec-06 00:21N 51°34' E 002°20'5 6.6
2016-Dec-05 23:33N 51°30' E 002°15'7 7.0
2016-Dec-05 22:34N 51°25' E 002°07'6 5.7
2016-Dec-05 21:34N 51°23' E 001°58'9 8.7
2016-Dec-05 20:33N 51°28' E 001°46'9 8.5
2016-Dec-05 19:33N 51°29' E 001°33'1110.0
2016-Dec-05 18:30N 51°29' E 001°16'1011.0
2016-Dec-05 17:33N 51°29' E 000°59'1010.2
2016-Dec-05 16:34N 51°29' E 000°43'8 8.2
2016-Dec-05 15:33N 51°30' E 000°30'6 6.5
2016-Dec-05 14:34N 51°27' E 000°20'1 0.8
2016-Dec-05 13:34N 51°28' E 000°21'0 0.0
2016-Dec-05 12:34N 51°28' E 000°21'1 0.5
2016-Dec-05 11:34N 51°27' E 000°20'5 4.5
2016-Dec-05 10:33N 51°29' E 000°27'6 5.5
2016-Dec-05 09:33N 51°30' E 000°36'6 5.7
2016-Dec-05 08:33N 51°30' E 000°45'5 5.4
2016-Dec-05 07:33N 51°30' E 000°54'5 4.6
2016-Dec-05 06:33N 51°30' E 001°01'5 4.9
2016-Dec-05 05:33N 51°29' E 001°09'5 4.7
2016-Dec-05 04:33N 51°29' E 001°16'5 5.1
2016-Dec-05 03:32N 51°29' E 001°25'5 5.1
2016-Dec-05 02:33N 51°29' E 001°33'5 5.3
2016-Dec-05 01:33N 51°28' E 001°41'0 0.2
2016-Dec-05 00:33N 51°28' E 001°41'1 1.2
2016-Dec-04 23:33N 51°27' E 001°43'1 0.9
2016-Dec-04 22:34N 51°27' E 001°44'1 0.9
2016-Dec-04 21:33N 51°26' E 001°45'1 1.3
2016-Dec-04 20:33N 51°25' E 001°44'2 2.0
2016-Dec-04 19:33N 51°23' E 001°43'3 2.9
2016-Dec-04 18:33N 51°20' E 001°42'5 5.3
2016-Dec-04 17:34N 51°15' E 001°40'6 5.6
2016-Dec-04 16:33N 51°09' E 001°41'7 6.7
2016-Dec-04 15:33N 51°03' E 001°36'8 7.6
2016-Dec-04 14:33N 50°57' E 001°31'71 1.8
2016-Dec-03 00:20N 50°21' W 000°06'6 7.2
2016-Dec-02 23:33N 50°26' W 000°10'18 8.9
2016-Dec-02 21:33N 50°35' W 000°35'10 9.9
2016-Dec-02 20:33N 50°39' W 000°48'9 9.5
2016-Dec-02 19:34N 50°43' W 001°02'6 5.5
2016-Dec-02 18:33N 50°45' W 001°11'0 0.0
2016-Dec-02 17:33N 50°45' W 001°11'0 0.0
2016-Dec-02 16:33N 50°45' W 001°11'0 0.0
2016-Dec-02 15:33N 50°45' W 001°11'0 0.0
2016-Dec-02 14:33N 50°45' W 001°11'0 0.0
2016-Dec-02 13:33N 50°45' W 001°11'0 0.0
2016-Dec-02 12:33N 50°45' W 001°11'0 0.0
2016-Dec-02 11:33N 50°45' W 001°11'0 0.0
2016-Dec-02 10:33N 50°45' W 001°11'0 0.0
2016-Dec-02 09:33N 50°45' W 001°10'0 0.0
2016-Dec-02 08:33N 50°45' W 001°11'0 0.0
2016-Dec-02 07:33N 50°45' W 001°11'0 0.0
2016-Dec-02 06:33N 50°45' W 001°11'0 0.0
2016-Dec-02 05:33N 50°45' W 001°11'0 0.0
2016-Dec-02 04:33N 50°45' W 001°11'0 0.0
2016-Dec-02 03:33N 50°45' W 001°11'0 0.0
2016-Dec-02 02:33N 50°45' W 001°11'0 0.0
2016-Dec-02 01:33N 50°45' W 001°11'0 0.0
2016-Dec-02 00:33N 50°45' W 001°11'0 0.0
2016-Dec-01 23:33N 50°45' W 001°11'0 0.0
2016-Dec-01 22:33N 50°45' W 001°11'0 0.0
2016-Dec-01 21:33N 50°45' W 001°11'0 0.0
2016-Dec-01 20:33N 50°45' W 001°10'0 0.0
2016-Dec-01 19:33N 50°45' W 001°11'0 0.0
2016-Dec-01 18:33N 50°45' W 001°11'0 0.0
2016-Dec-01 17:33N 50°45' W 001°11'0 0.0
2016-Dec-01 16:33N 50°45' W 001°11'0 0.0
2016-Dec-01 15:33N 50°45' W 001°11'0 0.0
2016-Dec-01 14:33N 50°45' W 001°11'0 0.0
2016-Dec-01 13:33N 50°45' W 001°11'0 0.0
2016-Dec-01 12:33N 50°45' W 001°11'0 0.0
2016-Dec-01 11:33N 50°45' W 001°11'0 0.0
2016-Dec-01 10:33N 50°45' W 001°11'0 0.0
2016-Dec-01 09:33N 50°45' W 001°11'0 0.0
2016-Dec-01 08:33N 50°45' W 001°10'0 0.0
2016-Dec-01 07:33N 50°45' W 001°11'0 0.0
2016-Dec-01 06:33N 50°45' W 001°11'0 0.0
2016-Dec-01 05:33N 50°45' W 001°11'0 0.0
2016-Dec-01 04:33N 50°45' W 001°11'0 0.0
2016-Dec-01 03:33N 50°45' W 001°11'0 0.0
2016-Dec-01 02:33N 50°45' W 001°11'0 0.0
2016-Dec-01 01:33N 50°45' W 001°11'0 0.0
2016-Dec-01 00:33N 50°45' W 001°11'0 0.0
2016-Nov-30 23:33N 50°45' W 001°11'0 0.0
2016-Nov-30 22:33N 50°45' W 001°11'0 0.0
2016-Nov-30 21:33N 50°45' W 001°11'  

Dump ship's entire track history